<?xml version="1.0" encoding="UTF-8" standalone="no" ?>
<gpx xmlns="http://www.topografix.com/GPX/1/1" xmlns:xsi="http://www.w3.org/2001/XMLSchema-instance" xsi:schemaLocation="http://www.topografix.com/GPX/1/1 http://www.topografix.com/GPX/1/1/gpx.xsd" version="1.1" creator="VisuGPX - https://www.visugpx.com">
  <metadata>
    <name>Mimet Baou Traouqua V2 théorique</name>
    <desc><![CDATA[A reconnaitre : inversion parcours (par rapport à V1)  entre le grand Puech et St Savournin]]></desc>
  </metadata>
  <trk>
    <name><![CDATA[20180409203718-fynd1]]></name>
    <trkseg>
      <trkpt lat="43.41048" lon="5.49054">
        <ele>540</ele>
        <time>2018-04-09T18:31:02 02:00</time>
      </trkpt>
      <trkpt lat="43.41027" lon="5.49026">
        <ele>543</ele>
        <time>2018-04-09T18:31:07 02:00</time>
      </trkpt>
      <trkpt lat="43.41016" lon="5.48979">
        <ele>539</ele>
        <time>2018-04-09T18:31:12 02:00</time>
      </trkpt>
      <trkpt lat="43.40997" lon="5.48939">
        <ele>558</ele>
        <time>2018-04-09T18:31:17 02:00</time>
      </trkpt>
      <trkpt lat="43.40991" lon="5.4893">
        <ele>556</ele>
        <time>2018-04-09T18:31:22 02:00</time>
      </trkpt>
      <trkpt lat="43.40983" lon="5.48865">
        <ele>557</ele>
        <time>2018-04-09T18:31:27 02:00</time>
      </trkpt>
      <trkpt lat="43.40961" lon="5.48816">
        <ele>558</ele>
        <time>2018-04-09T18:31:32 02:00</time>
      </trkpt>
      <trkpt lat="43.40954" lon="5.48749">
        <ele>554</ele>
        <time>2018-04-09T18:31:37 02:00</time>
      </trkpt>
      <trkpt lat="43.40934" lon="5.48705">
        <ele>557</ele>
        <time>2018-04-09T18:31:42 02:00</time>
      </trkpt>
      <trkpt lat="43.40916" lon="5.48612">
        <ele>578</ele>
        <time>2018-04-09T18:31:47 02:00</time>
      </trkpt>
      <trkpt lat="43.40901" lon="5.48552">
        <ele>570</ele>
        <time>2018-04-09T18:31:52 02:00</time>
      </trkpt>
      <trkpt lat="43.40885" lon="5.48527">
        <ele>571</ele>
        <time>2018-04-09T18:31:57 02:00</time>
      </trkpt>
      <trkpt lat="43.4085" lon="5.48426">
        <ele>570</ele>
        <time>2018-04-09T18:32:02 02:00</time>
      </trkpt>
      <trkpt lat="43.40839" lon="5.48348">
        <ele>571</ele>
        <time>2018-04-09T18:32:07 02:00</time>
      </trkpt>
      <trkpt lat="43.40825" lon="5.48349">
        <ele>575</ele>
        <time>2018-04-09T18:32:12 02:00</time>
      </trkpt>
      <trkpt lat="43.40822" lon="5.48388">
        <ele>574</ele>
        <time>2018-04-09T18:32:17 02:00</time>
      </trkpt>
      <trkpt lat="43.40819" lon="5.4849">
        <ele>582</ele>
        <time>2018-04-09T18:32:22 02:00</time>
      </trkpt>
      <trkpt lat="43.4081" lon="5.48544">
        <ele>587</ele>
        <time>2018-04-09T18:32:27 02:00</time>
      </trkpt>
      <trkpt lat="43.4083" lon="5.48627">
        <ele>601</ele>
        <time>2018-04-09T18:32:32 02:00</time>
      </trkpt>
      <trkpt lat="43.40827" lon="5.4872">
        <ele>617</ele>
        <time>2018-04-09T18:32:37 02:00</time>
      </trkpt>
      <trkpt lat="43.40807" lon="5.48739">
        <ele>617</ele>
        <time>2018-04-09T18:32:42 02:00</time>
      </trkpt>
      <trkpt lat="43.40818" lon="5.48767">
        <ele>628</ele>
        <time>2018-04-09T18:32:47 02:00</time>
      </trkpt>
      <trkpt lat="43.40799" lon="5.49018">
        <ele>663</ele>
        <time>2018-04-09T18:32:52 02:00</time>
      </trkpt>
      <trkpt lat="43.40766" lon="5.49153">
        <ele>683</ele>
        <time>2018-04-09T18:32:57 02:00</time>
      </trkpt>
      <trkpt lat="43.40771" lon="5.49232">
        <ele>693</ele>
        <time>2018-04-09T18:33:02 02:00</time>
      </trkpt>
      <trkpt lat="43.40765" lon="5.49262">
        <ele>701</ele>
        <time>2018-04-09T18:33:07 02:00</time>
      </trkpt>
      <trkpt lat="43.40774" lon="5.49305">
        <ele>699</ele>
        <time>2018-04-09T18:33:12 02:00</time>
      </trkpt>
      <trkpt lat="43.40754" lon="5.49419">
        <ele>713</ele>
        <time>2018-04-09T18:33:17 02:00</time>
      </trkpt>
      <trkpt lat="43.4071" lon="5.4949">
        <ele>704</ele>
        <time>2018-04-09T18:33:22 02:00</time>
      </trkpt>
      <trkpt lat="43.40659" lon="5.49582">
        <ele>710</ele>
        <time>2018-04-09T18:33:27 02:00</time>
      </trkpt>
      <trkpt lat="43.40649" lon="5.49608">
        <ele>709</ele>
        <time>2018-04-09T18:33:32 02:00</time>
      </trkpt>
      <trkpt lat="43.40646" lon="5.49649">
        <ele>707</ele>
        <time>2018-04-09T18:33:37 02:00</time>
      </trkpt>
      <trkpt lat="43.40631" lon="5.49679">
        <ele>706</ele>
        <time>2018-04-09T18:33:42 02:00</time>
      </trkpt>
      <trkpt lat="43.40585" lon="5.49792">
        <ele>704</ele>
        <time>2018-04-09T18:33:47 02:00</time>
      </trkpt>
      <trkpt lat="43.40523" lon="5.49874">
        <ele>711</ele>
        <time>2018-04-09T18:33:52 02:00</time>
      </trkpt>
      <trkpt lat="43.40503" lon="5.49962">
        <ele>707</ele>
        <time>2018-04-09T18:33:57 02:00</time>
      </trkpt>
      <trkpt lat="43.40498" lon="5.50106">
        <ele>712</ele>
        <time>2018-04-09T18:34:02 02:00</time>
      </trkpt>
      <trkpt lat="43.40468" lon="5.50183">
        <ele>707</ele>
        <time>2018-04-09T18:34:07 02:00</time>
      </trkpt>
      <trkpt lat="43.40454" lon="5.5029">
        <ele>702</ele>
        <time>2018-04-09T18:34:12 02:00</time>
      </trkpt>
      <trkpt lat="43.40461" lon="5.50327">
        <ele>702</ele>
        <time>2018-04-09T18:34:17 02:00</time>
      </trkpt>
      <trkpt lat="43.40445" lon="5.50365">
        <ele>705</ele>
        <time>2018-04-09T18:34:22 02:00</time>
      </trkpt>
      <trkpt lat="43.40465" lon="5.50432">
        <ele>711</ele>
        <time>2018-04-09T18:34:27 02:00</time>
      </trkpt>
      <trkpt lat="43.40462" lon="5.5049">
        <ele>712</ele>
        <time>2018-04-09T18:34:32 02:00</time>
      </trkpt>
      <trkpt lat="43.40481" lon="5.50597">
        <ele>708</ele>
        <time>2018-04-09T18:34:37 02:00</time>
      </trkpt>
      <trkpt lat="43.4049" lon="5.50664">
        <ele>707</ele>
        <time>2018-04-09T18:34:42 02:00</time>
      </trkpt>
      <trkpt lat="43.40492" lon="5.50715">
        <ele>704</ele>
        <time>2018-04-09T18:34:47 02:00</time>
      </trkpt>
      <trkpt lat="43.40479" lon="5.50769">
        <ele>707</ele>
        <time>2018-04-09T18:34:52 02:00</time>
      </trkpt>
      <trkpt lat="43.40482" lon="5.50803">
        <ele>710</ele>
        <time>2018-04-09T18:34:57 02:00</time>
      </trkpt>
      <trkpt lat="43.40472" lon="5.5084">
        <ele>716</ele>
        <time>2018-04-09T18:35:02 02:00</time>
      </trkpt>
      <trkpt lat="43.40484" lon="5.50885">
        <ele>718</ele>
        <time>2018-04-09T18:35:07 02:00</time>
      </trkpt>
      <trkpt lat="43.40498" lon="5.51041">
        <ele>727</ele>
        <time>2018-04-09T18:35:12 02:00</time>
      </trkpt>
      <trkpt lat="43.40506" lon="5.51099">
        <ele>737</ele>
        <time>2018-04-09T18:35:17 02:00</time>
      </trkpt>
      <trkpt lat="43.40503" lon="5.51159">
        <ele>742</ele>
        <time>2018-04-09T18:35:22 02:00</time>
      </trkpt>
      <trkpt lat="43.40523" lon="5.51183">
        <ele>746</ele>
        <time>2018-04-09T18:35:27 02:00</time>
      </trkpt>
      <trkpt lat="43.40531" lon="5.51213">
        <ele>748</ele>
        <time>2018-04-09T18:35:32 02:00</time>
      </trkpt>
      <trkpt lat="43.40535" lon="5.51239">
        <ele>750</ele>
        <time>2018-04-09T18:35:37 02:00</time>
      </trkpt>
      <trkpt lat="43.40572" lon="5.51275">
        <ele>756</ele>
        <time>2018-04-09T18:35:42 02:00</time>
      </trkpt>
      <trkpt lat="43.4054" lon="5.51275">
        <ele>755</ele>
        <time>2018-04-09T18:35:47 02:00</time>
      </trkpt>
      <trkpt lat="43.40525" lon="5.51306">
        <ele>754</ele>
        <time>2018-04-09T18:35:52 02:00</time>
      </trkpt>
      <trkpt lat="43.40506" lon="5.51311">
        <ele>753</ele>
        <time>2018-04-09T18:35:57 02:00</time>
      </trkpt>
      <trkpt lat="43.4047" lon="5.5135">
        <ele>733</ele>
        <time>2018-04-09T18:36:02 02:00</time>
      </trkpt>
      <trkpt lat="43.40465" lon="5.51391">
        <ele>730</ele>
        <time>2018-04-09T18:36:07 02:00</time>
      </trkpt>
      <trkpt lat="43.40434" lon="5.51422">
        <ele>720</ele>
        <time>2018-04-09T18:36:12 02:00</time>
      </trkpt>
      <trkpt lat="43.40429" lon="5.51454">
        <ele>716</ele>
        <time>2018-04-09T18:36:17 02:00</time>
      </trkpt>
      <trkpt lat="43.40431" lon="5.51479">
        <ele>714</ele>
        <time>2018-04-09T18:36:22 02:00</time>
      </trkpt>
      <trkpt lat="43.40427" lon="5.51504">
        <ele>706</ele>
        <time>2018-04-09T18:36:27 02:00</time>
      </trkpt>
      <trkpt lat="43.4043" lon="5.51553">
        <ele>696</ele>
        <time>2018-04-09T18:36:32 02:00</time>
      </trkpt>
      <trkpt lat="43.40403" lon="5.51629">
        <ele>683</ele>
        <time>2018-04-09T18:36:37 02:00</time>
      </trkpt>
      <trkpt lat="43.40405" lon="5.51665">
        <ele>684</ele>
        <time>2018-04-09T18:36:42 02:00</time>
      </trkpt>
      <trkpt lat="43.4038" lon="5.5172">
        <ele>674</ele>
        <time>2018-04-09T18:36:47 02:00</time>
      </trkpt>
      <trkpt lat="43.40369" lon="5.51744">
        <ele>675</ele>
      </trkpt>
      <trkpt lat="43.40351" lon="5.51776">
        <ele>672</ele>
      </trkpt>
      <trkpt lat="43.40309" lon="5.51818">
        <ele>670</ele>
      </trkpt>
      <trkpt lat="43.40308" lon="5.51859">
        <ele>669</ele>
      </trkpt>
      <trkpt lat="43.40317" lon="5.51902">
        <ele>669</ele>
      </trkpt>
      <trkpt lat="43.40327" lon="5.5195">
        <ele>666</ele>
      </trkpt>
      <trkpt lat="43.40321" lon="5.51986">
        <ele>667</ele>
      </trkpt>
      <trkpt lat="43.40286" lon="5.5202">
        <ele>666</ele>
      </trkpt>
      <trkpt lat="43.40264" lon="5.52039">
        <ele>666</ele>
      </trkpt>
      <trkpt lat="43.40249" lon="5.52064">
        <ele>658</ele>
      </trkpt>
      <trkpt lat="43.40219" lon="5.52112">
        <ele>655</ele>
      </trkpt>
      <trkpt lat="43.40206" lon="5.52119">
        <ele>653</ele>
      </trkpt>
      <trkpt lat="43.402" lon="5.52123">
        <ele>652</ele>
      </trkpt>
      <trkpt lat="43.40195" lon="5.52134">
        <ele>652</ele>
      </trkpt>
      <trkpt lat="43.40215" lon="5.52158">
        <ele>654</ele>
      </trkpt>
      <trkpt lat="43.40245" lon="5.52173">
        <ele>657</ele>
      </trkpt>
      <trkpt lat="43.40286" lon="5.52189">
        <ele>662</ele>
      </trkpt>
      <trkpt lat="43.40289" lon="5.52199">
        <ele>662</ele>
      </trkpt>
      <trkpt lat="43.40292" lon="5.52215">
        <ele>661</ele>
      </trkpt>
      <trkpt lat="43.40295" lon="5.52229">
        <ele>660</ele>
      </trkpt>
      <trkpt lat="43.40305" lon="5.52234">
        <ele>660</ele>
      </trkpt>
      <trkpt lat="43.40304" lon="5.52255">
        <ele>652</ele>
      </trkpt>
      <trkpt lat="43.40293" lon="5.52273">
        <ele>650</ele>
      </trkpt>
      <trkpt lat="43.40282" lon="5.52296">
        <ele>649</ele>
      </trkpt>
      <trkpt lat="43.40275" lon="5.52309">
        <ele>649</ele>
      </trkpt>
      <trkpt lat="43.4025" lon="5.52327">
        <ele>650</ele>
      </trkpt>
      <trkpt lat="43.40221" lon="5.52364">
        <ele>647</ele>
      </trkpt>
      <trkpt lat="43.40206" lon="5.52389">
        <ele>647</ele>
      </trkpt>
      <trkpt lat="43.40185" lon="5.52411">
        <ele>651</ele>
      </trkpt>
      <trkpt lat="43.40171" lon="5.52437">
        <ele>652</ele>
      </trkpt>
      <trkpt lat="43.40151" lon="5.5246">
        <ele>658</ele>
      </trkpt>
      <trkpt lat="43.40137" lon="5.52489">
        <ele>659</ele>
      </trkpt>
      <trkpt lat="43.40112" lon="5.52496">
        <ele>659</ele>
      </trkpt>
      <trkpt lat="43.40114" lon="5.5252">
        <ele>655</ele>
      </trkpt>
      <trkpt lat="43.40112" lon="5.52547">
        <ele>652</ele>
      </trkpt>
      <trkpt lat="43.40109" lon="5.5257">
        <ele>649</ele>
      </trkpt>
      <trkpt lat="43.40102" lon="5.52596">
        <ele>633</ele>
      </trkpt>
      <trkpt lat="43.40083" lon="5.52609">
        <ele>623</ele>
      </trkpt>
      <trkpt lat="43.4008" lon="5.5264">
        <ele>615</ele>
      </trkpt>
      <trkpt lat="43.40075" lon="5.52667">
        <ele>612</ele>
      </trkpt>
      <trkpt lat="43.4008" lon="5.52725">
        <ele>591</ele>
      </trkpt>
      <trkpt lat="43.40062" lon="5.52778">
        <ele>583</ele>
      </trkpt>
      <trkpt lat="43.40008" lon="5.52861">
        <ele>582</ele>
      </trkpt>
      <trkpt lat="43.39975" lon="5.52924">
        <ele>592</ele>
      </trkpt>
      <trkpt lat="43.39958" lon="5.52983">
        <ele>593</ele>
      </trkpt>
      <trkpt lat="43.39948" lon="5.53013">
        <ele>587</ele>
      </trkpt>
      <trkpt lat="43.39943" lon="5.53035">
        <ele>585</ele>
      </trkpt>
      <trkpt lat="43.39918" lon="5.53077">
        <ele>591</ele>
      </trkpt>
      <trkpt lat="43.39903" lon="5.53112">
        <ele>596</ele>
      </trkpt>
      <trkpt lat="43.39898" lon="5.53141">
        <ele>591</ele>
      </trkpt>
      <trkpt lat="43.39888" lon="5.53186">
        <ele>577</ele>
      </trkpt>
      <trkpt lat="43.39849" lon="5.53189">
        <ele>586</ele>
      </trkpt>
      <trkpt lat="43.3982" lon="5.5322">
        <ele>593</ele>
      </trkpt>
      <trkpt lat="43.39811" lon="5.5324">
        <ele>591</ele>
      </trkpt>
      <trkpt lat="43.39797" lon="5.53252">
        <ele>584</ele>
      </trkpt>
      <trkpt lat="43.39774" lon="5.53313">
        <ele>582</ele>
      </trkpt>
      <trkpt lat="43.3973" lon="5.5334">
        <ele>576</ele>
      </trkpt>
      <trkpt lat="43.39683" lon="5.53368">
        <ele>569</ele>
      </trkpt>
      <trkpt lat="43.39686" lon="5.5335">
        <ele>570</ele>
      </trkpt>
      <trkpt lat="43.39695" lon="5.53334">
        <ele>571</ele>
      </trkpt>
      <trkpt lat="43.39705" lon="5.53306">
        <ele>582</ele>
      </trkpt>
      <trkpt lat="43.39732" lon="5.53251">
        <ele>592</ele>
      </trkpt>
      <trkpt lat="43.39751" lon="5.53205">
        <ele>599</ele>
      </trkpt>
      <trkpt lat="43.39774" lon="5.53165">
        <ele>606</ele>
      </trkpt>
      <trkpt lat="43.39794" lon="5.53122">
        <ele>608</ele>
      </trkpt>
      <trkpt lat="43.39801" lon="5.53092">
        <ele>611</ele>
      </trkpt>
      <trkpt lat="43.39806" lon="5.53052">
        <ele>615</ele>
      </trkpt>
      <trkpt lat="43.39825" lon="5.53019">
        <ele>622</ele>
      </trkpt>
      <trkpt lat="43.39836" lon="5.53014">
        <ele>627</ele>
      </trkpt>
      <trkpt lat="43.39843" lon="5.53001">
        <ele>628</ele>
      </trkpt>
      <trkpt lat="43.39858" lon="5.53001">
        <ele>623</ele>
      </trkpt>
      <trkpt lat="43.39866" lon="5.52981">
        <ele>620</ele>
      </trkpt>
      <trkpt lat="43.39892" lon="5.52964">
        <ele>616</ele>
      </trkpt>
      <trkpt lat="43.39932" lon="5.52926">
        <ele>602</ele>
      </trkpt>
      <trkpt lat="43.39942" lon="5.52899">
        <ele>594</ele>
      </trkpt>
      <trkpt lat="43.39948" lon="5.52888">
        <ele>592</ele>
      </trkpt>
      <trkpt lat="43.39961" lon="5.52889">
        <ele>590</ele>
      </trkpt>
      <trkpt lat="43.39975" lon="5.52875">
        <ele>588</ele>
      </trkpt>
      <trkpt lat="43.39981" lon="5.5286">
        <ele>587</ele>
      </trkpt>
      <trkpt lat="43.40004" lon="5.52858">
        <ele>582</ele>
      </trkpt>
      <trkpt lat="43.4007" lon="5.52772">
        <ele>584</ele>
      </trkpt>
      <trkpt lat="43.40088" lon="5.5276">
        <ele>584</ele>
      </trkpt>
      <trkpt lat="43.401" lon="5.52742">
        <ele>592</ele>
      </trkpt>
      <trkpt lat="43.40121" lon="5.52729">
        <ele>592</ele>
      </trkpt>
      <trkpt lat="43.40135" lon="5.52718">
        <ele>592</ele>
      </trkpt>
      <trkpt lat="43.40152" lon="5.52717">
        <ele>591</ele>
      </trkpt>
      <trkpt lat="43.40169" lon="5.52719">
        <ele>576</ele>
      </trkpt>
      <trkpt lat="43.40192" lon="5.52719">
        <ele>575</ele>
      </trkpt>
      <trkpt lat="43.40207" lon="5.52711">
        <ele>574</ele>
      </trkpt>
      <trkpt lat="43.40222" lon="5.52694">
        <ele>574</ele>
      </trkpt>
      <trkpt lat="43.40239" lon="5.52664">
        <ele>582</ele>
      </trkpt>
      <trkpt lat="43.40249" lon="5.5265">
        <ele>586</ele>
      </trkpt>
      <trkpt lat="43.40267" lon="5.52629">
        <ele>567</ele>
      </trkpt>
      <trkpt lat="43.40295" lon="5.52613">
        <ele>563</ele>
      </trkpt>
      <trkpt lat="43.4033" lon="5.52557">
        <ele>571</ele>
      </trkpt>
      <trkpt lat="43.40382" lon="5.52545">
        <ele>548</ele>
      </trkpt>
      <trkpt lat="43.404" lon="5.52572">
        <ele>540</ele>
      </trkpt>
      <trkpt lat="43.40407" lon="5.52613">
        <ele>531</ele>
      </trkpt>
      <trkpt lat="43.4042" lon="5.52641">
        <ele>513</ele>
      </trkpt>
      <trkpt lat="43.4043" lon="5.52652">
        <ele>512</ele>
      </trkpt>
      <trkpt lat="43.40445" lon="5.52626">
        <ele>511</ele>
      </trkpt>
      <trkpt lat="43.40466" lon="5.52591">
        <ele>510</ele>
      </trkpt>
      <trkpt lat="43.40488" lon="5.52559">
        <ele>521</ele>
      </trkpt>
      <trkpt lat="43.40516" lon="5.52582">
        <ele>509</ele>
      </trkpt>
      <trkpt lat="43.40525" lon="5.52613">
        <ele>493</ele>
      </trkpt>
      <trkpt lat="43.40528" lon="5.5263">
        <ele>490</ele>
      </trkpt>
      <trkpt lat="43.40564" lon="5.5265">
        <ele>482</ele>
      </trkpt>
      <trkpt lat="43.40592" lon="5.52656">
        <ele>468</ele>
      </trkpt>
      <trkpt lat="43.40625" lon="5.52599">
        <ele>471</ele>
      </trkpt>
      <trkpt lat="43.40626" lon="5.52559">
        <ele>486</ele>
      </trkpt>
      <trkpt lat="43.40631" lon="5.52426">
        <ele>505</ele>
      </trkpt>
      <trkpt lat="43.40628" lon="5.52403">
        <ele>514</ele>
      </trkpt>
      <trkpt lat="43.40609" lon="5.52362">
        <ele>521</ele>
      </trkpt>
      <trkpt lat="43.40613" lon="5.52335">
        <ele>522</ele>
      </trkpt>
      <trkpt lat="43.40627" lon="5.52298">
        <ele>529</ele>
      </trkpt>
      <trkpt lat="43.40626" lon="5.5226">
        <ele>532</ele>
      </trkpt>
      <trkpt lat="43.40613" lon="5.52201">
        <ele>544</ele>
      </trkpt>
      <trkpt lat="43.40609" lon="5.52181">
        <ele>546</ele>
      </trkpt>
      <trkpt lat="43.40612" lon="5.52133">
        <ele>549</ele>
      </trkpt>
      <trkpt lat="43.40591" lon="5.52094">
        <ele>553</ele>
      </trkpt>
      <trkpt lat="43.40574" lon="5.52079">
        <ele>564</ele>
      </trkpt>
      <trkpt lat="43.40556" lon="5.52026">
        <ele>575</ele>
      </trkpt>
      <trkpt lat="43.40528" lon="5.5198">
        <ele>587</ele>
      </trkpt>
      <trkpt lat="43.40499" lon="5.51965">
        <ele>608</ele>
      </trkpt>
      <trkpt lat="43.40482" lon="5.51935">
        <ele>610</ele>
      </trkpt>
      <trkpt lat="43.40472" lon="5.51921">
        <ele>613</ele>
      </trkpt>
      <trkpt lat="43.40454" lon="5.51917">
        <ele>618</ele>
      </trkpt>
      <trkpt lat="43.40442" lon="5.51901">
        <ele>630</ele>
      </trkpt>
      <trkpt lat="43.40427" lon="5.51896">
        <ele>632</ele>
      </trkpt>
      <trkpt lat="43.40404" lon="5.51902">
        <ele>649</ele>
      </trkpt>
      <trkpt lat="43.40362" lon="5.51956">
        <ele>656</ele>
      </trkpt>
      <trkpt lat="43.40343" lon="5.51991">
        <ele>664</ele>
      </trkpt>
      <trkpt lat="43.40333" lon="5.51997">
        <ele>670</ele>
      </trkpt>
      <trkpt lat="43.40328" lon="5.51981">
        <ele>667</ele>
      </trkpt>
      <trkpt lat="43.40331" lon="5.51954">
        <ele>666</ele>
      </trkpt>
      <trkpt lat="43.40319" lon="5.51871">
        <ele>669</ele>
      </trkpt>
      <trkpt lat="43.40315" lon="5.51825">
        <ele>672</ele>
      </trkpt>
      <trkpt lat="43.40338" lon="5.51799">
        <ele>673</ele>
      </trkpt>
      <trkpt lat="43.40358" lon="5.51781">
        <ele>671</ele>
      </trkpt>
      <trkpt lat="43.40386" lon="5.51725">
        <ele>674</ele>
      </trkpt>
      <trkpt lat="43.40412" lon="5.51708">
        <ele>675</ele>
      </trkpt>
      <trkpt lat="43.40434" lon="5.51618">
        <ele>680</ele>
      </trkpt>
      <trkpt lat="43.40505" lon="5.51495">
        <ele>699</ele>
        <time>2018-04-09T18:37:27 02:00</time>
      </trkpt>
      <trkpt lat="43.40557" lon="5.5145">
        <ele>713</ele>
        <time>2018-04-09T18:37:32 02:00</time>
      </trkpt>
      <trkpt lat="43.40686" lon="5.51577">
        <ele>683</ele>
        <time>2018-04-09T18:37:37 02:00</time>
      </trkpt>
      <trkpt lat="43.40739" lon="5.51454">
        <ele>707</ele>
        <time>2018-04-09T18:37:42 02:00</time>
      </trkpt>
      <trkpt lat="43.40779" lon="5.51469">
        <ele>689</ele>
        <time>2018-04-09T18:37:47 02:00</time>
      </trkpt>
      <trkpt lat="43.40825" lon="5.51441">
        <ele>688</ele>
        <time>2018-04-09T18:37:52 02:00</time>
      </trkpt>
      <trkpt lat="43.40851" lon="5.51343">
        <ele>687</ele>
        <time>2018-04-09T18:37:57 02:00</time>
      </trkpt>
      <trkpt lat="43.40892" lon="5.51296">
        <ele>685</ele>
        <time>2018-04-09T18:38:02 02:00</time>
      </trkpt>
      <trkpt lat="43.40912" lon="5.51173">
        <ele>681</ele>
        <time>2018-04-09T18:38:07 02:00</time>
      </trkpt>
      <trkpt lat="43.40889" lon="5.51021">
        <ele>670</ele>
        <time>2018-04-09T18:38:12 02:00</time>
      </trkpt>
      <trkpt lat="43.40848" lon="5.50948">
        <ele>660</ele>
        <time>2018-04-09T18:38:17 02:00</time>
      </trkpt>
      <trkpt lat="43.40832" lon="5.50939">
        <ele>674</ele>
        <time>2018-04-09T18:38:22 02:00</time>
      </trkpt>
      <trkpt lat="43.40831" lon="5.50843">
        <ele>649</ele>
        <time>2018-04-09T18:38:27 02:00</time>
      </trkpt>
      <trkpt lat="43.40829" lon="5.50828">
        <ele>642</ele>
        <time>2018-04-09T18:38:32 02:00</time>
      </trkpt>
      <trkpt lat="43.40773" lon="5.50768">
        <ele>632</ele>
        <time>2018-04-09T18:38:37 02:00</time>
      </trkpt>
      <trkpt lat="43.40663" lon="5.50828">
        <ele>644</ele>
        <time>2018-04-09T18:38:42 02:00</time>
      </trkpt>
      <trkpt lat="43.40652" lon="5.50751">
        <ele>637</ele>
        <time>2018-04-09T18:38:47 02:00</time>
      </trkpt>
      <trkpt lat="43.40655" lon="5.50613">
        <ele>624</ele>
        <time>2018-04-09T18:38:52 02:00</time>
      </trkpt>
      <trkpt lat="43.40664" lon="5.50508">
        <ele>610</ele>
        <time>2018-04-09T18:38:57 02:00</time>
      </trkpt>
      <trkpt lat="43.40675" lon="5.50502">
        <ele>597</ele>
        <time>2018-04-09T18:39:02 02:00</time>
      </trkpt>
      <trkpt lat="43.40666" lon="5.50416">
        <ele>595</ele>
        <time>2018-04-09T18:39:07 02:00</time>
      </trkpt>
      <trkpt lat="43.40645" lon="5.50375">
        <ele>613</ele>
        <time>2018-04-09T18:39:12 02:00</time>
      </trkpt>
      <trkpt lat="43.40677" lon="5.50349">
        <ele>581</ele>
        <time>2018-04-09T18:39:17 02:00</time>
      </trkpt>
      <trkpt lat="43.40709" lon="5.5015">
        <ele>581</ele>
        <time>2018-04-09T18:39:22 02:00</time>
      </trkpt>
      <trkpt lat="43.40708" lon="5.50064">
        <ele>593</ele>
        <time>2018-04-09T18:39:27 02:00</time>
      </trkpt>
      <trkpt lat="43.40842" lon="5.4995">
        <ele>558</ele>
        <time>2018-04-09T18:39:32 02:00</time>
      </trkpt>
      <trkpt lat="43.40829" lon="5.49884">
        <ele>589</ele>
        <time>2018-04-09T18:39:37 02:00</time>
      </trkpt>
      <trkpt lat="43.40854" lon="5.4986">
        <ele>563</ele>
        <time>2018-04-09T18:39:42 02:00</time>
      </trkpt>
      <trkpt lat="43.40834" lon="5.498">
        <ele>571</ele>
        <time>2018-04-09T18:39:47 02:00</time>
      </trkpt>
      <trkpt lat="43.40926" lon="5.49534">
        <ele>578</ele>
        <time>2018-04-09T18:39:52 02:00</time>
      </trkpt>
      <trkpt lat="43.40965" lon="5.49493">
        <ele>579</ele>
        <time>2018-04-09T18:39:57 02:00</time>
      </trkpt>
      <trkpt lat="43.4102" lon="5.49362">
        <ele>560</ele>
        <time>2018-04-09T18:40:02 02:00</time>
      </trkpt>
      <trkpt lat="43.41035" lon="5.49266">
        <ele>562</ele>
        <time>2018-04-09T18:40:07 02:00</time>
      </trkpt>
      <trkpt lat="43.41044" lon="5.49238">
        <ele>558</ele>
        <time>2018-04-09T18:40:12 02:00</time>
      </trkpt>
      <trkpt lat="43.41038" lon="5.49107">
        <ele>549</ele>
        <time>2018-04-09T18:40:17 02:00</time>
      </trkpt>
      <trkpt lat="43.41027" lon="5.49045">
        <ele>544</ele>
        <time>2018-04-09T18:40:22 02:00</time>
      </trkpt>
      <trkpt lat="43.41048" lon="5.49053">
        <ele>540</ele>
        <time>2018-04-09T18:40:27 02:00</time>
      </trkpt>
      <trkpt lat="43.41054" lon="5.49051">
        <ele>539</ele>
        <time>2018-04-09T18:40:32 02:00</time>
      </trkpt>
      <trkpt lat="43.41044" lon="5.49051">
        <ele>541</ele>
        <time>2018-04-09T18:40:37 02:00</time>
      </trkpt>
    </trkseg>
  </trk>
</gpx>